X  Fermer Données météorologiques d'aviation de Metar     CYYC Calgary International Airport
Température
17°C Température
5°C Point de rosée
45% Humidité



Vitesse
0 KM/H
0 MPH
0 M/S
0 KTS



Calme
Nord
Conditions actuelles

Partiellement nuageux Partiellement nuageux
Pression 1025.72 (hPa) - 30.29 (inHg)
Visibilité 40 (mile) - 64.4 (km)
Aéroport
Code de l'aéroport CYYC

Emplacement: Calgary International Airport
Distance: 4 (km)

Metar:
CYYC 261500Z 00000KT 40SM FEW200 17/05 A3029 RMK CI1 CI TR SLP261 DENSITY ALT 4200FT

Temps: 26-06-2022 09:00 MDT